Time;durP1;ratioP1;P1;durP2;ratioP2;P2;SDS_P1;SDS_P2;PMS_P1;PMS_P2;Temp;Humidity;BMP_temperature;BMP_pressure;BME280_temperature;BME280_humidity;BME280_pressure;Samples;Min_cycle;Max_cycle;Signal;HPM_P1;HPM_P2
2022/06/17 00:00:30;;;;;;;76.70;71.70;;;;;;;15.48;100.00;101274.00;6278315;22;20016;-90
2022/06/17 00:02:57;;;;;;;70.47;65.43;;;;;;;15.58;100.00;101278.81;6274504;22;20074;-91
2022/06/17 00:05:24;;;;;;;69.30;64.72;;;;;;;15.98;100.00;101268.44;6273910;22;20024;-91
2022/06/17 00:07:51;;;;;;;86.28;80.57;;;;;;;15.84;100.00;101263.47;6274716;22;20020;-90
2022/06/17 00:10:22;;;;;;;82.28;77.03;;;;;;;16.00;100.00;101260.97;6274520;22;20032;-90
2022/06/17 00:12:49;;;;;;;86.35;81.05;;;;;;;15.57;100.00;101261.94;6274382;22;20023;-89
2022/06/17 00:15:16;;;;;;;44.25;40.67;;;;;;;15.93;100.00;101256.75;6274276;22;20016;-90
2022/06/17 00:17:49;;;;;;;42.90;39.40;;;;;;;16.32;100.00;101252.66;6274992;22;20022;-90
2022/06/17 00:20:17;;;;;;;;;;;;;;;16.55;100.00;101249.19;6274920;22;20030;-90
2022/06/17 00:22:46;;;;;;;72.28;67.22;;;;;;;16.61;100.00;101252.78;6275098;22;19915;-91
2022/06/17 00:25:26;;;;;;;71.50;66.80;;;;;;;16.68;100.00;101256.19;6274734;22;20016;-90
2022/06/17 00:27:54;;;;;;;62.13;58.13;;;;;;;16.80;100.00;101243.63;6275012;22;20015;-90
2022/06/17 00:30:23;;;;;;;61.80;57.47;;;;;;;16.94;100.00;101246.84;6274258;22;20015;-90
2022/06/17 00:32:54;;;;;;;81.13;75.90;;;;;;;16.81;100.00;101241.75;6274340;22;20077;-90
2022/06/17 00:35:21;;;;;;;82.32;77.00;;;;;;;16.52;100.00;101251.50;6276288;22;20389;-91
2022/06/17 00:37:48;;;;;;;76.88;71.97;;;;;;;16.89;100.00;101254.81;6276454;22;20381;-90
2022/06/17 00:40:18;;;;;;;76.90;71.55;;;;;;;16.90;100.00;101251.06;6276571;22;20030;-91
2022/06/17 00:42:45;;;;;;;70.05;65.78;;;;;;;16.89;100.00;101238.72;6276589;22;20020;-90
2022/06/17 00:45:20;;;;;;;77.43;72.63;;;;;;;17.02;100.00;101243.81;6276215;22;20019;-90
2022/06/17 00:47:53;;;;;;;42.17;38.75;;;;;;;17.07;100.00;101241.25;6276616;22;20020;-90
2022/06/17 00:50:29;;;;;;;35.35;33.05;;;;;;;17.24;100.00;101235.94;6276380;22;20019;-90
2022/06/17 00:53:05;;;;;;;34.88;32.28;;;;;;;17.34;100.00;101238.06;6276335;22;20019;-91
2022/06/17 00:55:37;;;;;;;36.05;33.20;;;;;;;17.48;100.00;101225.97;6276697;22;20078;-91
2022/06/17 00:58:26;;;;;;;35.43;33.20;;;;;;;17.29;100.00;101213.78;6276376;22;20536;-91
2022/06/17 01:00:55;;;;;;;38.15;35.72;;;;;;;17.18;100.00;101228.84;6270245;22;20274;-90
2022/06/17 01:03:26;;;;;;;34.00;31.55;;;;;;;17.28;100.00;101215.66;6278412;22;20019;-90
2022/06/17 01:06:00;;;;;;;35.55;33.45;;;;;;;17.27;100.00;101216.69;6280337;22;20022;-90
2022/06/17 01:11:16;;;;;;;33.45;31.40;;;;;;;17.18;100.00;101218.91;6280007;22;20031;-90
2022/06/17 01:13:48;;;;;;;36.17;33.92;;;;;;;17.20;100.00;101221.38;6280453;22;20024;-91
2022/06/17 01:16:17;;;;;;;34.17;32.08;;;;;;;17.07;100.00;101216.28;6280630;22;20038;-91
2022/06/17 01:18:46;;;;;;;32.92;30.58;;;;;;;16.46;100.00;101219.22;6279779;22;20019;-90
2022/06/17 01:21:21;;;;;;;35.53;33.17;;;;;;;16.87;100.00;101209.44;6281027;22;20022;-90
2022/06/17 01:23:50;;;;;;;38.03;35.20;;;;;;;16.54;100.00;101214.56;6279313;22;20527;-92
2022/06/17 01:26:18;;;;;;;36.20;33.55;;;;;;;16.64;100.00;101212.94;6279811;22;20095;-90
2022/06/17 01:28:45;;;;;;;37.03;34.42;;;;;;;16.46;100.00;101216.56;6279809;22;20449;-90
2022/06/17 01:31:12;;;;;;;37.80;35.15;;;;;;;16.57;100.00;101212.22;6280815;22;20024;-90
2022/06/17 01:33:42;;;;;;;38.72;36.13;;;;;;;16.32;100.00;101206.28;6280137;22;20012;-89
2022/06/17 01:36:13;;;;;;;41.40;38.03;;;;;;;16.01;100.00;101205.53;6280725;22;20030;-90
2022/06/17 01:38:42;;;;;;;40.38;37.42;;;;;;;16.00;100.00;101210.06;6279588;22;20081;-90
2022/06/17 01:41:14;;;;;;;40.30;37.50;;;;;;;15.66;100.00;101205.41;6279571;22;20019;-90
2022/06/17 01:43:46;;;;;;;44.90;41.55;;;;;;;15.64;100.00;101208.28;6279914;22;20016;-90
2022/06/17 01:46:16;;;;;;;44.90;41.60;;;;;;;15.77;100.00;101205.47;6280397;22;20020;-89
2022/06/17 01:48:49;;;;;;;40.65;37.65;;;;;;;15.17;100.00;101205.41;6280095;22;20462;-89
2022/06/17 01:51:18;;;;;;;43.80;40.80;;;;;;;15.66;100.00;101205.41;6279850;22;20107;-92
2022/06/17 01:53:49;;;;;;;40.67;37.67;;;;;;;15.59;100.00;101200.16;6279755;22;20018;-90
2022/06/17 01:56:21;;;;;;;37.47;34.60;;;;;;;15.89;100.00;101194.81;6279997;22;20020;-89
2022/06/17 01:58:51;;;;;;;;;;;;;;;16.01;100.00;101200.19;6280721;22;20043;-91
2022/06/17 02:01:18;;;;;;;38.22;35.33;;;;;;;16.15;100.00;101188.19;6264781;22;20250;-86
2022/06/17 02:06:39;;;;;;;37.95;35.05;;;;;;;15.59;100.00;101194.78;6295871;22;20004;-86
2022/06/17 02:09:17;;;;;;;38.47;35.47;;;;;;;15.56;100.00;101197.94;6296546;22;20409;-87
2022/06/17 02:11:46;;;;;;;36.22;33.67;;;;;;;14.95;100.00;101190.84;6291325;22;20050;-86
2022/06/17 02:14:13;;;;;;;40.40;37.25;;;;;;;14.91;100.00;101197.69;6305428;22;20106;-89
2022/06/17 02:16:42;;;;;;;37.38;34.65;;;;;;;14.91;100.00;101200.38;6311226;22;20030;-90
2022/06/17 02:19:10;;;;;;;39.38;36.47;;;;;;;14.92;100.00;101202.00;6310705;22;20019;-90
2022/06/17 02:21:42;;;;;;;38.75;35.75;;;;;;;15.44;100.00;101197.88;6310483;22;20031;-89
2022/06/17 02:24:11;;;;;;;37.67;34.85;;;;;;;15.47;100.00;101186.72;6311409;22;20019;-89
2022/06/17 02:26:41;;;;;;;39.28;36.38;;;;;;;15.30;100.00;101193.72;6309829;22;20019;-90
2022/06/17 02:29:12;;;;;;;35.72;33.05;;;;;;;15.25;100.00;101190.91;6309223;22;20030;-89
2022/06/17 02:31:42;;;;;;;33.47;30.92;;;;;;;15.27;100.00;101197.66;6311099;22;20020;-89
2022/06/17 02:34:13;;;;;;;36.08;33.17;;;;;;;14.85;100.00;101208.22;6310996;22;20499;-89
2022/06/17 02:36:46;;;;;;;36.70;33.97;;;;;;;14.60;100.00;101202.13;6310602;22;20387;-89
2022/06/17 02:39:14;;;;;;;;;;;;;;;14.83;100.00;101204.97;6311999;22;20019;-89
2022/06/17 02:41:41;;;;;;;37.45;34.72;;;;;;;14.98;100.00;101214.50;6310569;22;19915;-90
2022/06/17 02:44:19;;;;;;;34.90;32.42;;;;;;;15.17;100.00;101207.28;6310817;22;20025;-90
2022/06/17 02:46:47;;;;;;;36.92;34.13;;;;;;;15.19;100.00;101206.03;6311382;22;20090;-89
2022/06/17 02:49:19;;;;;;;33.85;31.40;;;;;;;15.09;100.00;101201.19;6310477;22;20019;-89
2022/06/17 02:51:46;;;;;;;34.92;32.10;;;;;;;15.27;100.00;101202.22;6311762;22;20027;-89
2022/06/17 02:54:25;;;;;;;33.97;31.38;;;;;;;15.36;100.00;101195.50;6310804;22;20019;-90
2022/06/17 02:56:57;;;;;;;34.33;31.77;;;;;;;15.42;100.00;101199.13;6310866;22;20019;-89
2022/06/17 02:59:44;;;;;;;36.60;33.90;;;;;;;15.56;100.00;101190.69;6310808;22;20023;-89
2022/06/17 03:02:18;;;;;;;33.88;31.77;;;;;;;15.89;100.00;101191.31;6288695;22;20027;-90
2022/06/17 03:04:47;;;;;;;36.10;33.47;;;;;;;15.68;100.00;101189.97;6278986;22;20023;-89
2022/06/17 03:07:17;;;;;;;32.53;30.42;;;;;;;15.75;100.00;101193.34;6278148;22;20018;-88
2022/06/17 03:10:04;;;;;;;32.17;30.08;;;;;;;15.86;100.00;101189.09;6279542;22;20015;-90
2022/06/17 03:23:27;;;;;;;51.97;49.27;;;;;;;16.29;100.00;101190.66;4766102;27;10001740;-86
2022/06/17 03:25:59;;;;;;;47.97;45.28;;;;;;;16.14;100.00;101196.47;5107297;28;20362;-87
2022/06/17 03:28:30;;;;;;;53.00;50.08;;;;;;;16.33;100.00;101197.19;5112429;28;20414;-85
2022/06/17 03:31:04;;;;;;;50.47;47.88;;;;;;;16.26;100.00;101203.47;5111448;28;20043;-85
2022/06/17 03:33:36;;;;;;;44.65;42.08;;;;;;;15.88;100.00;101200.38;5112751;28;20047;-85
2022/06/17 03:36:08;;;;;;;50.42;47.42;;;;;;;15.89;100.00;101202.03;5111633;28;20063;-85
2022/06/17 03:38:38;;;;;;;;;;;;;;;16.18;100.00;101203.81;5112715;28;20430;-87
2022/06/17 03:41:13;;;;;;;84.03;80.32;;;;;;;16.40;100.00;101205.91;5107727;28;19924;-85
2022/06/17 03:43:44;;;;;;;25.63;24.02;;;;;;;16.65;100.00;101201.16;5103423;28;20052;-85
2022/06/17 03:46:13;;;;;;;29.10;27.20;;;;;;;16.74;100.00;101196.25;5108502;28;20044;-87
2022/06/17 03:48:45;;;;;;;49.78;45.67;;;;;;;16.88;100.00;101204.88;5111028;28;20048;-85
2022/06/17 03:51:16;;;;;;;44.92;41.53;;;;;;;16.73;100.00;101208.00;5108975;28;20054;-85
2022/06/17 03:53:45;;;;;;;27.90;25.92;;;;;;;16.75;100.00;101213.97;5112733;28;20070;-87
2022/06/17 03:56:21;;;;;;;27.42;25.70;;;;;;;16.91;100.00;101207.94;5116558;28;20044;-87
2022/06/17 03:58:49;;;;;;;25.17;23.80;;;;;;;16.97;100.00;101208.81;5116869;28;20059;-85
2022/06/17 04:01:23;;;;;;;24.75;23.35;;;;;;;17.05;100.00;101213.03;5113326;28;20044;-85
2022/06/17 04:03:53;;;;;;;25.38;23.60;;;;;;;17.02;100.00;101208.94;5114422;28;20048;-85
2022/06/17 04:06:24;;;;;;;26.63;25.23;;;;;;;17.17;100.00;101216.50;5117264;28;20050;-86
2022/06/17 04:08:55;;;;;;;23.75;22.42;;;;;;;17.17;100.00;101214.63;5113479;28;20048;-86
2022/06/17 04:11:28;;;;;;;25.80;24.13;;;;;;;17.29;100.00;101216.47;5105204;28;20118;-84
2022/06/17 04:13:57;;;;;;;23.48;22.17;;;;;;;17.12;100.00;101224.44;5101086;28;20063;-85
2022/06/17 04:16:38;;;;;;;23.10;21.80;;;;;;;17.38;100.00;101210.47;5106599;28;20040;-85
2022/06/17 04:19:16;;;;;;;22.63;21.42;;;;;;;17.61;100.00;101206.88;5107764;28;20052;-85
2022/06/17 04:21:47;;;;;;;23.48;21.98;;;;;;;18.30;100.00;101222.03;5108807;28;20396;-85
2022/06/17 04:24:17;;;;;;;25.77;24.38;;;;;;;22.30;100.00;101213.25;5095881;28;20044;-85
2022/06/17 04:26:48;;;;;;;25.50;24.00;;;;;;;21.84;100.00;101216.75;5096488;28;20044;-84
2022/06/17 04:29:20;;;;;;;25.60;24.10;;;;;;;22.78;100.00;101213.69;5092448;28;20377;-83
2022/06/17 04:31:51;;;;;;;25.47;24.07;;;;;;;22.84;100.00;101215.31;5094903;28;20052;-82
2022/06/17 04:34:19;;;;;;;25.65;24.20;;;;;;;22.77;100.00;101220.22;5095110;28;20492;-82
2022/06/17 04:36:49;;;;;;;25.88;24.58;;;;;;;22.98;100.00;101221.78;5095163;28;20051;-82
2022/06/17 04:39:23;;;;;;;25.42;23.88;;;;;;;22.99;100.00;101219.88;5095398;28;20044;-84
2022/06/17 04:42:00;;;;;;;24.35;23.05;;;;;;;21.22;100.00;101213.06;5098342;28;20059;-85
2022/06/17 04:44:43;;;;;;;;;;;;;;;;;;;;;
2022/06/17 04:47:24;;;;;;;25.95;24.50;;;;;;;18.51;100.00;101215.09;5109698;28;20058;-84
2022/06/17 04:50:01;;;;;;;24.80;23.50;;;;;;;18.36;100.00;101209.50;5109354;28;20120;-84
2022/06/17 04:52:34;;;;;;;27.45;25.65;;;;;;;18.51;100.00;101215.09;5110414;28;20071;-84
2022/06/17 04:55:03;;;;;;;27.85;26.45;;;;;;;18.64;100.00;101216.63;5110242;28;20070;-84
2022/06/17 04:57:34;;;;;;;27.98;26.48;;;;;;;18.51;100.00;101213.22;5112116;28;20518;-84
2022/06/17 05:00:16;;;;;;;;;;;;;;;;;;;;;
2022/06/17 05:02:47;;;;;;;24.92;23.60;;;;;;;18.81;100.00;101214.75;5103641;28;20119;-84
2022/06/17 05:05:32;;;;;;;25.92;24.50;;;;;;;18.86;100.00;101209.44;5110557;28;20056;-84
2022/06/17 05:08:06;;;;;;;30.00;28.40;;;;;;;18.95;100.00;101212.50;5113264;28;20048;-84
2022/06/17 05:10:36;;;;;;;30.55;29.00;;;;;;;18.97;100.00;101211.22;5106145;28;20052;-82
2022/06/17 05:13:15;;;;;;;26.58;25.17;;;;;;;19.14;100.00;101213.00;5097635;28;20075;-82
2022/06/17 05:15:46;;;;;;;25.85;24.25;;;;;;;19.21;100.00;101208.25;5097999;28;20127;-85
2022/06/17 05:18:42;;;;;;;;;;;;;;;;;;;;;
2022/06/17 05:21:18;;;;;;;25.55;23.75;;;;;;;19.40;100.00;101216.81;5101038;28;20126;-84
2022/06/17 05:23:47;;;;;;;25.10;23.50;;;;;;;19.59;100.00;101225.38;5095258;28;20189;-84
2022/06/17 05:26:26;;;;;;;26.77;25.17;;;;;;;19.78;100.00;101217.78;5096081;28;20058;-85
2022/06/17 05:29:03;;;;;;;25.15;22.70;;;;;;;19.97;100.00;101213.66;5095842;28;20559;-83
2022/06/17 05:31:31;;;;;;;24.60;23.08;;;;;;;19.98;100.00;101220.66;5089692;28;20044;-84
2022/06/17 05:34:11;;;;;;;25.08;23.08;;;;;;;20.13;100.00;101206.50;5099370;28;20098;-85
2022/06/17 05:36:52;;;;;;;25.52;23.55;;;;;;;20.21;100.00;101194.41;5107057;28;20048;-85
2022/06/17 05:39:31;;;;;;;26.10;24.05;;;;;;;20.56;100.00;101202.78;5108354;28;20051;-85
2022/06/17 05:42:13;;;;;;;25.05;23.10;;;;;;;20.59;100.00;101198.75;5109997;28;20115;-85
2022/06/17 05:44:43;;;;;;;24.73;23.05;;;;;;;20.99;100.00;101195.44;5106203;28;20055;-84
2022/06/17 05:47:43;;;;;;;25.20;23.60;;;;;;;20.66;100.00;101193.09;5105576;28;20045;-85
2022/06/17 05:50:19;;;;;;;25.92;23.92;;;;;;;21.03;100.00;101193.84;5100825;28;20075;-85
2022/06/17 05:53:15;;;;;;;25.67;24.15;;;;;;;21.40;100.00;101197.50;5093076;28;20052;-84
2022/06/17 05:55:56;;;;;;;25.42;23.83;;;;;;;21.24;100.00;101192.03;5097623;28;20051;-84
2022/06/17 05:58:40;;;;;;;26.17;24.13;;;;;;;21.48;100.00;101194.25;5107579;28;20564;-84
2022/06/17 06:01:29;;;;;;;25.40;23.83;;;;;;;21.67;100.00;101192.69;5102302;28;20049;-84
2022/06/17 06:04:06;;;;;;;25.05;23.23;;;;;;;21.43;100.00;101192.38;5103391;28;20044;-83
2022/06/17 06:06:42;;;;;;;26.23;24.40;;;;;;;21.57;100.00;101199.94;5096856;28;20067;-83
2022/06/17 06:09:09;;;;;;;26.15;24.30;;;;;;;22.13;100.00;101192.69;5091670;28;20489;-84
2022/06/17 06:11:37;;;;;;;26.35;24.42;;;;;;;22.20;100.00;101188.94;5080895;28;20476;-83
2022/06/17 06:14:24;;;;;;;28.77;26.98;;;;;;;22.60;100.00;101190.72;5104707;28;20109;-85
2022/06/17 06:17:11;;;;;;;29.08;26.38;;;;;;;22.72;100.00;101190.44;5097993;28;20076;-85
2022/06/17 06:19:59;;;;;;;28.67;27.17;;;;;;;22.56;100.00;101185.06;5102732;28;20455;-85
2022/06/17 06:22:38;;;;;;;30.13;28.30;;;;;;;22.66;100.00;101170.69;5085971;28;20058;-84
2022/06/17 06:25:19;;;;;;;29.80;27.98;;;;;;;23.02;100.00;101173.28;5095418;28;20067;-82
2022/06/17 06:27:56;;;;;;;28.60;27.17;;;;;;;23.25;100.00;101172.63;5105494;28;20075;-83
2022/06/17 06:30:34;;;;;;;31.98;30.15;;;;;;;23.41;100.00;101169.81;5097279;28;20087;-83
2022/06/17 06:33:19;;;;;;;34.00;32.30;;;;;;;23.35;100.00;101168.25;5093793;28;20047;-83
2022/06/17 06:35:57;;;;;;;34.53;32.67;;;;;;;23.61;100.00;101158.84;5092998;28;20040;-84
2022/06/17 06:39:01;;;;;;;35.58;33.22;;;;;;;23.68;100.00;101161.22;5103614;28;20503;-84
2022/06/17 06:42:09;;;;;;;;;;;;;;;;;;;;;
2022/06/17 06:44:49;;;;;;;;;;;;;;;;;;;;;
2022/06/17 06:47:16;;;;;;;36.00;34.13;;;;;;;24.06;100.00;101156.06;5086485;28;20127;-83
2022/06/17 06:49:51;;;;;;;37.75;35.65;;;;;;;24.36;100.00;101142.19;5093606;28;20067;-84
2022/06/17 06:52:22;;;;;;;36.53;34.33;;;;;;;24.36;100.00;101149.53;5096487;28;20040;-83
2022/06/17 06:55:06;;;;;;;36.03;34.15;;;;;;;24.48;100.00;101149.97;5094341;28;20044;-84
2022/06/17 07:01:13;;;;;;;34.90;32.75;;;;;;;24.79;100.00;101142.25;5092797;28;20049;-84
2022/06/17 07:03:50;;;;;;;35.22;33.53;;;;;;;24.75;100.00;101141.22;5100032;28;20051;-85
2022/06/17 07:06:40;;;;;;;33.05;31.27;;;;;;;25.00;97.85;101145.53;5096679;28;20056;-84
2022/06/17 07:09:07;;;;;;;33.80;32.03;;;;;;;25.00;93.51;101137.38;5091423;28;20143;-84
2022/06/17 07:11:45;;;;;;;32.17;30.05;;;;;;;24.90;93.34;101134.78;5083094;28;20052;-85
2022/06/17 07:14:21;;;;;;;28.77;27.08;;;;;;;25.13;100.00;101139.38;5091334;28;20044;-84
2022/06/17 07:17:01;;;;;;;;;;;;;;;;;;;;;
2022/06/17 07:19:29;;;;;;;29.05;27.27;;;;;;;25.15;100.00;101138.31;5082350;28;20135;-84
2022/06/17 07:21:57;;;;;;;30.83;28.65;;;;;;;25.23;100.00;101137.63;5082249;28;20076;-84
2022/06/17 07:24:37;;;;;;;29.20;27.60;;;;;;;25.20;99.35;101147.16;5092710;28;20044;-84
2022/06/17 07:27:15;;;;;;;29.60;27.90;;;;;;;25.44;96.56;101133.47;5099374;28;20086;-83
2022/06/17 07:29:44;;;;;;;31.35;29.42;;;;;;;25.61;84.42;101129.44;5090583;28;20103;-86
2022/06/17 07:32:15;;;;;;;31.92;30.23;;;;;;;25.58;81.52;101134.34;5106143;28;20109;-85
2022/06/17 07:34:46;;;;;;;32.63;30.67;;;;;;;25.66;98.09;101134.78;5095243;28;20045;-85
2022/06/17 07:40:57;;;;;;;;;;;;;;;;;;;;;
2022/06/17 07:43:29;;;;;;;37.75;35.63;;;;;;;25.90;92.49;101135.50;5089075;28;20128;-84
2022/06/17 07:46:06;;;;;;;35.30;32.90;;;;;;;25.77;95.75;101136.22;5090163;28;20114;-83
2022/06/17 07:48:53;;;;;;;39.28;37.22;;;;;;;25.87;94.70;101140.72;5095478;28;20047;-83
2022/06/17 07:51:33;;;;;;;36.65;34.75;;;;;;;26.01;100.00;101144.28;5093597;28;20048;-84
2022/06/17 07:54:26;;;;;;;37.70;35.80;;;;;;;25.80;100.00;101139.16;5096637;28;20047;-85
2022/06/17 07:57:13;;;;;;;34.80;33.08;;;;;;;25.91;100.00;101131.66;5091738;28;20462;-85
2022/06/17 07:59:46;;;;;;;35.20;33.20;;;;;;;26.11;100.00;101135.13;5095026;28;20043;-85
2022/06/17 08:02:37;;;;;;;34.60;32.78;;;;;;;26.16;100.00;101130.38;5100557;28;20049;-85
2022/06/17 08:05:06;;;;;;;33.78;31.90;;;;;;;25.94;100.00;101135.72;5094017;28;20560;-83
2022/06/17 08:07:52;;;;;;;;;;;;;;;;;;;;;
2022/06/17 08:10:29;;;;;;;32.25;30.45;;;;;;;26.53;100.00;101138.72;5103038;28;20056;-82
2022/06/17 08:13:01;;;;;;;33.53;31.20;;;;;;;26.59;99.80;101134.78;5081924;28;20048;-85
2022/06/17 08:15:32;;;;;;;34.30;32.10;;;;;;;26.43;97.23;101131.53;5076801;28;20049;-87
2022/06/17 08:18:05;;;;;;;34.42;32.33;;;;;;;26.32;96.66;101133.63;5089006;28;20052;-85
2022/06/17 08:20:42;;;;;;;36.28;34.28;;;;;;;26.09;100.00;101137.34;5094886;28;20113;-84
2022/06/17 08:23:14;;;;;;;34.97;32.90;;;;;;;26.27;100.00;101131.03;5091557;28;20052;-83
2022/06/17 08:25:44;;;;;;;34.90;32.90;;;;;;;26.65;92.44;101139.81;5095183;28;20044;-87
2022/06/17 08:28:20;;;;;;;32.75;30.65;;;;;;;26.16;100.00;101124.94;5095932;28;20051;-84
2022/06/17 08:30:55;;;;;;;33.17;31.45;;;;;;;26.34;100.00;101125.97;5093197;28;20117;-83
2022/06/17 08:33:35;;;;;;;29.50;27.80;;;;;;;26.59;100.00;101132.03;5098068;28;20122;-85
2022/06/17 08:36:16;;;;;;;28.35;25.95;;;;;;;26.21;100.00;101130.31;5097599;28;20040;-86
2022/06/17 08:38:49;;;;;;;28.23;26.52;;;;;;;26.59;98.74;101138.28;5095043;28;20048;-84
2022/06/17 08:41:27;;;;;;;28.15;26.35;;;;;;;26.52;100.00;101137.91;5098708;28;20070;-83
2022/06/17 08:44:23;;;;;;;31.52;29.83;;;;;;;26.59;100.00;101132.03;5094763;28;20105;-83
2022/06/17 08:47:23;;;;;;;;;;;;;;;;;;;;;
2022/06/17 08:50:06;;;;;;;33.25;31.45;;;;;;;27.08;93.72;101128.53;5095801;28;20051;-82
2022/06/17 08:52:58;;;;;;;31.65;29.50;;;;;;;26.51;100.00;101119.97;5089715;28;20479;-83
2022/06/17 08:55:38;;;;;;;30.88;28.75;;;;;;;26.04;100.00;101122.72;5087676;28;20150;-82
2022/06/17 08:58:16;;;;;;;28.13;26.50;;;;;;;26.34;100.00;101120.53;5089750;28;20063;-82
2022/06/17 09:00:55;;;;;;;28.70;26.80;;;;;;;26.39;100.00;101125.06;5090320;28;20064;-82
2022/06/17 09:03:51;;;;;;;28.45;26.55;;;;;;;26.89;87.61;101111.53;5089766;28;20051;-81
2022/06/17 09:06:38;;;;;;;28.58;26.83;;;;;;;26.80;100.00;101114.16;5093697;28;20127;-82
2022/06/17 09:09:33;;;;;;;31.40;29.40;;;;;;;26.64;100.00;101112.88;5096411;28;20052;-82
2022/06/17 09:12:18;;;;;;;31.83;29.83;;;;;;;26.75;100.00;101111.56;5095843;28;20464;-82
2022/06/17 09:14:53;;;;;;;32.20;30.20;;;;;;;26.78;100.00;101110.94;5084628;28;20123;-82
2022/06/17 09:17:31;;;;;;;27.30;25.60;;;;;;;27.27;88.07;101112.06;5075887;28;20048;-82
2022/06/17 09:20:06;;;;;;;30.80;28.98;;;;;;;26.29;100.00;101107.00;5081671;28;20075;-82
2022/06/17 09:22:38;;;;;;;47.22;44.63;;;;;;;26.94;100.00;101108.69;5087109;28;20091;-84
2022/06/17 09:25:09;;;;;;;45.45;42.85;;;;;;;26.31;100.00;101104.00;5093444;28;20052;-81
2022/06/17 09:27:41;;;;;;;34.15;32.15;;;;;;;27.58;82.52;101097.66;5096722;28;20055;-81
2022/06/17 09:30:17;;;;;;;33.67;31.63;;;;;;;27.09;100.00;101102.09;5095945;28;20521;-84
2022/06/17 09:32:54;;;;;;;35.92;33.92;;;;;;;27.11;100.00;101097.94;5095153;28;20048;-81
2022/06/17 09:35:35;;;;;;;36.65;34.25;;;;;;;27.76;95.63;101090.38;5089751;28;20113;-81
2022/06/17 09:38:13;;;;;;;37.05;34.75;;;;;;;27.29;72.78;101092.63;5086839;28;20052;-81
2022/06/17 09:40:52;;;;;;;40.35;38.17;;;;;;;27.38;78.72;101097.06;5095464;28;20079;-82
2022/06/17 09:43:27;;;;;;;37.20;35.03;;;;;;;28.04;57.93;101080.91;5093330;28;20055;-81
2022/06/17 09:46:03;;;;;;;33.92;31.77;;;;;;;28.50;66.77;101084.28;5092359;28;20044;-82
2022/06/17 09:48:38;;;;;;;33.35;31.35;;;;;;;28.11;68.92;101079.66;5091983;28;20128;-81
2022/06/17 09:51:14;;;;;;;40.97;38.80;;;;;;;28.01;64.81;101084.28;5094646;28;20073;-82
2022/06/17 09:53:48;;;;;;;36.88;34.92;;;;;;;28.25;54.81;101081.16;5093254;28;20036;-82
2022/06/17 09:56:31;;;;;;;30.15;28.23;;;;;;;28.62;50.64;101079.00;5094521;28;20362;-81
2022/06/17 09:59:11;;;;;;;29.33;27.52;;;;;;;28.60;75.52;101075.81;5081989;28;20496;-82
2022/06/17 10:01:45;;;;;;;29.10;27.00;;;;;;;27.92;82.56;101069.78;5088151;28;20393;-80
2022/06/17 10:04:14;;;;;;;30.50;28.60;;;;;;;28.80;55.40;101066.19;5094305;28;20044;-83
2022/06/17 10:06:53;;;;;;;29.70;27.90;;;;;;;28.87;54.26;101068.47;5093028;28;20048;-82
2022/06/17 10:09:35;;;;;;;31.70;29.70;;;;;;;29.60;53.00;101066.63;5095130;28;20135;-81
2022/06/17 10:12:12;;;;;;;32.40;30.20;;;;;;;29.32;63.46;101058.00;5093392;28;20083;-82
2022/06/17 10:15:08;;;;;;;32.80;30.40;;;;;;;28.67;57.03;101054.28;5094532;28;20036;-84
2022/06/17 10:20:48;;;;;;;34.40;32.30;;;;;;;28.60;54.32;101056.69;5088551;28;20109;-82
2022/06/17 10:23:25;;;;;;;31.40;29.70;;;;;;;29.56;48.24;101053.91;5092454;28;20064;-82
2022/06/17 10:26:10;;;;;;;31.80;29.80;;;;;;;29.35;41.33;101057.34;5098864;28;20442;-82
2022/06/17 10:28:53;;;;;;;35.05;32.85;;;;;;;29.57;42.95;101052.81;5100539;28;20123;-80
2022/06/17 10:31:33;;;;;;;33.15;31.08;;;;;;;29.58;53.67;101059.88;5092639;28;20044;-82
2022/06/17 10:34:22;;;;;;;49.95;47.22;;;;;;;29.37;47.57;101043.34;5086817;28;20048;-84
2022/06/17 10:37:07;;;;;;;52.03;48.88;;;;;;;29.73;42.84;101042.94;5094287;28;20054;-83
2022/06/17 10:39:40;;;;;;;32.78;30.60;;;;;;;29.73;44.93;101051.16;5094388;28;20121;-82
2022/06/17 10:42:19;;;;;;;34.97;33.08;;;;;;;30.04;45.43;101039.09;5091818;28;20048;-82
2022/06/17 10:44:59;;;;;;;34.20;32.00;;;;;;;29.73;44.10;101045.69;5099973;28;20074;-82
2022/06/17 10:47:36;;;;;;;32.90;31.00;;;;;;;29.89;48.26;101038.53;5086564;28;20069;-81
2022/06/17 10:50:15;;;;;;;30.70;28.80;;;;;;;29.91;44.21;101038.19;5097609;28;20475;-82
2022/06/17 10:52:53;;;;;;;30.40;28.60;;;;;;;28.40;84.08;101035.41;5095375;28;20052;-81
2022/06/17 10:55:35;;;;;;;33.55;31.55;;;;;;;28.84;67.49;101034.38;5097526;28;20052;-80
2022/06/17 10:58:12;;;;;;;47.28;44.70;;;;;;;29.36;63.84;101031.59;5087323;28;20046;-82
2022/06/17 11:00:51;;;;;;;27.90;26.00;;;;;;;28.44;55.00;101041.88;5088832;28;20079;-81
2022/06/17 11:03:28;;;;;;;28.20;26.45;;;;;;;28.07;85.45;101033.88;5087818;28;20044;-82
2022/06/17 11:06:06;;;;;;;28.85;27.15;;;;;;;29.00;52.28;101032.75;5088027;28;20045;-81
2022/06/17 11:08:41;;;;;;;29.63;27.83;;;;;;;29.98;47.50;101029.47;5087238;28;20052;-81
2022/06/17 11:14:01;;;;;;;29.48;27.67;;;;;;;28.67;62.79;101028.88;5084491;28;20120;-83
2022/06/17 11:16:41;;;;;;;29.83;27.77;;;;;;;29.47;43.39;101026.56;5092775;28;20056;-80
2022/06/17 11:19:18;;;;;;;27.15;25.35;;;;;;;30.39;44.69;101033.47;5093049;28;20052;-80
2022/06/17 11:21:47;;;;;;;29.63;27.38;;;;;;;30.54;39.43;101014.50;5089859;28;20036;-82
2022/06/17 11:24:23;;;;;;;31.13;29.23;;;;;;;30.31;45.27;101016.75;5074222;28;20071;-80
2022/06/17 11:27:17;;;;;;;31.90;30.00;;;;;;;31.01;41.78;101011.53;5083305;28;20056;-81
2022/06/17 11:29:47;;;;;;;30.70;28.80;;;;;;;30.91;39.46;101011.16;5091520;28;20048;-80
2022/06/17 11:32:35;;;;;;;30.67;28.27;;;;;;;30.49;39.28;101011.94;5088932;28;20040;-79
2022/06/17 11:35:20;;;;;;;27.77;25.88;;;;;;;30.29;35.91;101008.06;5091651;28;20040;-81
2022/06/17 11:37:51;;;;;;;29.80;27.80;;;;;;;30.06;35.99;100998.50;5091652;28;20056;-81
2022/06/17 11:40:23;;;;;;;29.55;27.65;;;;;;;30.82;37.99;101000.28;5097020;28;20084;-80
2022/06/17 11:42:53;;;;;;;42.80;40.22;;;;;;;30.71;37.25;100999.03;5094520;28;20044;-81
2022/06/17 11:45:28;;;;;;;40.03;37.53;;;;;;;30.78;37.54;100999.34;5095767;28;20036;-81
2022/06/17 11:48:02;;;;;;;34.65;32.45;;;;;;;30.98;48.60;100987.53;5093311;28;20052;-82
2022/06/17 11:50:32;;;;;;;34.55;32.22;;;;;;;31.36;34.71;100985.72;5094980;28;20059;-81
2022/06/17 11:53:11;;;;;;;33.72;31.52;;;;;;;31.11;33.17;100987.59;5096341;28;20076;-80
2022/06/17 11:55:49;;;;;;;31.73;29.67;;;;;;;31.95;34.40;100971.59;5084608;28;20100;-79
2022/06/17 11:58:19;;;;;;;31.27;29.17;;;;;;;31.91;34.46;100976.19;5091806;28;20040;-81
2022/06/17 12:00:48;;;;;;;37.40;35.20;;;;;;;31.31;35.44;100974.94;5091603;28;20051;-81
2022/06/17 12:03:20;;;;;;;35.40;33.10;;;;;;;31.11;35.27;100973.88;5089057;28;20580;-81
2022/06/17 12:05:59;;;;;;;33.17;31.00;;;;;;;30.97;36.57;100974.16;5091337;28;20048;-79
2022/06/17 12:08:33;;;;;;;29.58;27.48;;;;;;;30.58;36.07;100974.31;5082845;28;20040;-79
2022/06/17 12:11:07;;;;;;;32.40;30.20;;;;;;;29.99;36.65;100957.16;5087290;28;20048;-81
2022/06/17 12:13:43;;;;;;;32.50;30.38;;;;;;;30.25;44.31;100963.28;5090243;28;20048;-79
2022/06/17 12:16:15;;;;;;;33.67;31.50;;;;;;;30.05;34.93;100969.53;5089079;28;20051;-80
2022/06/17 12:18:46;;;;;;;31.63;29.42;;;;;;;29.72;47.84;100958.44;5088436;28;20061;-81
2022/06/17 12:21:33;;;;;;;29.85;27.60;;;;;;;31.07;38.74;100953.75;5087796;28;20049;-80
2022/06/17 12:24:15;;;;;;;29.92;27.83;;;;;;;31.17;35.10;100956.84;5094996;28;20059;-82